createdAt,value
2018-04-12T00:00:37.439Z,95150.19
2018-04-12T00:03:05.140Z,95151.80
2018-04-12T00:05:32.756Z,95156.97
2018-04-12T00:08:00.360Z,95157.53
2018-04-12T00:10:27.925Z,95162.84
2018-04-12T00:12:55.472Z,95152.33
2018-04-12T00:15:23.591Z,95143.67
2018-04-12T00:17:51.178Z,95148.42
2018-04-12T00:20:18.792Z,95141.63
2018-04-12T00:22:46.349Z,95139.97
2018-04-12T00:25:14.455Z,95134.33
2018-04-12T00:27:42.013Z,95133.02
2018-04-12T00:30:09.652Z,95137.50
2018-04-12T00:32:37.224Z,95131.13
2018-04-12T00:35:04.880Z,95131.63
2018-04-12T00:37:34.705Z,95126.77
2018-04-12T00:40:02.249Z,95120.84
2018-04-12T00:42:30.061Z,95117.19
2018-04-12T00:44:57.633Z,95110.20
2018-04-12T00:47:25.204Z,95115.40
2018-04-12T00:49:52.799Z,95108.30
2018-04-12T00:52:20.393Z,95114.91
2018-04-12T00:54:47.952Z,95109.10
2018-04-12T00:57:16.087Z,95113.94
2018-04-12T00:59:43.651Z,95107.45
2018-04-12T01:02:11.197Z,95105.20
2018-04-12T01:04:38.725Z,95109.72
2018-04-12T01:07:06.761Z,95108.28
2018-04-12T01:09:34.839Z,95112.24
2018-04-12T01:12:02.373Z,95104.34
2018-04-12T01:14:29.944Z,95107.53
2018-04-12T01:16:57.481Z,95109.06
2018-04-12T01:19:25.412Z,95108.72
2018-04-12T01:21:52.997Z,95103.89
2018-04-12T01:24:20.533Z,95101.16
2018-04-12T01:26:48.065Z,95108.98
2018-04-12T01:29:16.219Z,95104.38
2018-04-12T01:31:43.750Z,95111.12
2018-04-12T01:34:11.235Z,95108.10
2018-04-12T01:36:38.743Z,95100.51
2018-04-12T01:39:06.626Z,95106.16
2018-04-12T01:41:34.560Z,95106.08
2018-04-12T01:44:02.132Z,95101.86
2018-04-12T01:46:29.707Z,95100.64
2018-04-12T01:48:57.282Z,95106.02
2018-04-12T01:51:24.919Z,95098.22
2018-04-12T01:53:52.726Z,95104.33
2018-04-12T01:56:20.305Z,95114.72
2018-04-12T01:58:47.853Z,95115.56
2018-04-12T02:01:15.388Z,95112.38
2018-04-12T02:03:45.065Z,95109.34
2018-04-12T02:06:12.822Z,95102.13
2018-04-12T02:08:40.351Z,95105.27
2018-04-12T02:11:07.941Z,95099.93
2018-04-12T02:13:39.037Z,95091.06
2018-04-12T02:16:06.629Z,95087.63
2018-04-12T02:18:35.329Z,95075.37
2018-04-12T02:21:02.947Z,95071.47
2018-04-12T02:23:33.442Z,95077.22
2018-04-12T02:26:03.506Z,95073.96
2018-04-12T02:28:32.479Z,95081.73
2018-04-12T02:31:03.168Z,95072.26
2018-04-12T02:33:30.920Z,95072.80
2018-04-12T02:35:59.786Z,95066.28
2018-04-12T02:38:30.407Z,95067.46
2018-04-12T02:40:57.990Z,95060.85
2018-04-12T02:43:25.955Z,95056.50
2018-04-12T02:45:57.241Z,95058.05
2018-04-12T02:48:28.245Z,95057.58
2018-04-12T02:50:55.904Z,95063.86
2018-04-12T02:53:26.036Z,95055.16
2018-04-12T02:55:56.135Z,95046.80
2018-04-12T02:58:23.816Z,95044.86
2018-04-12T03:00:51.810Z,95045.94
2018-04-12T03:03:22.305Z,95045.30
2018-04-12T03:05:50.262Z,95050.38
2018-04-12T03:08:17.829Z,95054.52
2018-04-12T03:10:45.365Z,95038.84
2018-04-12T03:13:12.918Z,95031.16
2018-04-12T03:15:40.471Z,95040.42
2018-04-12T03:18:08.017Z,95037.83
2018-04-12T03:23:26.735Z,95034.57
2018-04-12T03:25:54.493Z,95029.11
2018-04-12T03:28:22.069Z,95034.32
2018-04-12T03:30:55.151Z,95034.40
2018-04-12T03:33:29.622Z,95026.98
2018-04-12T03:36:02.678Z,95029.82
2018-04-12T03:38:31.565Z,95033.39
2018-04-12T03:40:59.327Z,95036.47
2018-04-12T03:43:27.200Z,95042.95
2018-04-12T03:45:56.112Z,95044.15
2018-04-12T03:48:23.646Z,95041.75
2018-04-12T03:50:52.915Z,95038.31
2018-04-12T03:53:20.628Z,95046.87
2018-04-12T03:55:48.163Z,95040.72
2018-04-12T03:58:15.715Z,95049.61
2018-04-12T04:00:46.112Z,95044.03
2018-04-12T04:03:13.672Z,95036.38
2018-04-12T04:05:41.272Z,95054.45
2018-04-12T04:08:08.797Z,95047.00
2018-04-12T04:10:36.354Z,95044.91
2018-04-12T04:13:04.615Z,95051.78
2018-04-12T04:15:43.963Z,95048.95
2018-04-12T04:18:23.249Z,95049.78
2018-04-12T04:23:51.286Z,95047.49
2018-04-12T04:26:18.838Z,95043.77
2018-04-12T04:28:46.396Z,95051.96
2018-04-12T04:31:14.052Z,95054.02
2018-04-12T04:33:41.613Z,95058.70
2018-04-12T04:36:11.677Z,95052.35
2018-04-12T04:38:39.214Z,95058.88
2018-04-12T04:41:06.913Z,95060.05
2018-04-12T04:43:35.660Z,95060.20
2018-04-12T04:46:04.868Z,95059.76
2018-04-12T04:48:33.498Z,95055.34
2018-04-12T04:51:01.203Z,95060.47
2018-04-12T04:53:28.737Z,95064.63
2018-04-12T04:55:56.953Z,95061.42
2018-04-12T04:58:24.484Z,95058.21
2018-04-12T05:00:52.045Z,95051.55
2018-04-12T05:03:20.204Z,95054.01
2018-04-12T05:05:47.781Z,95056.46
2018-04-12T05:08:15.444Z,95055.09
2018-04-12T05:10:43.012Z,95057.94
2018-04-12T05:13:11.617Z,95069.37
2018-04-12T05:15:39.469Z,95068.29
2018-04-12T05:18:07.159Z,95050.50
2018-04-12T05:20:34.698Z,95055.16
2018-04-12T05:23:02.263Z,95056.79
2018-04-12T05:25:30.587Z,95058.27
2018-04-12T05:27:58.186Z,95062.43
2018-04-12T05:30:25.751Z,95054.91
2018-04-12T05:32:53.292Z,95049.31
2018-04-12T05:35:21.723Z,95047.20
2018-04-12T05:37:50.072Z,95038.21
2018-04-12T05:40:18.023Z,95032.44
2018-04-12T05:42:45.596Z,95037.38
2018-04-12T05:45:13.872Z,95039.59
2018-04-12T05:47:41.968Z,95037.40
2018-04-12T05:50:09.542Z,95045.27
2018-04-12T05:52:38.462Z,95042.67
2018-04-12T05:55:06.129Z,95052.05
2018-04-12T05:57:33.689Z,95043.89
2018-04-12T06:00:01.290Z,95042.59
2018-04-12T06:02:32.366Z,95042.62
2018-04-12T06:05:00.057Z,95039.01
2018-04-12T06:07:27.574Z,95044.87
2018-04-12T06:09:56.248Z,95057.74
2018-04-12T06:12:26.556Z,95050.45
2018-04-12T06:14:56.141Z,95047.80
2018-04-12T06:17:23.682Z,95057.11
2018-04-12T06:19:53.241Z,95060.54
2018-04-12T06:22:20.804Z,95051.87
2018-04-12T06:24:48.351Z,95055.88
2018-04-12T06:27:16.433Z,95050.81
2018-04-12T06:29:47.296Z,95056.97
2018-04-12T06:32:18.395Z,95049.33
2018-04-12T06:34:48.310Z,95056.02
2018-04-12T06:37:15.904Z,95062.34
2018-04-12T06:42:13.001Z,95065.20
2018-04-12T06:44:45.792Z,95058.43
2018-04-12T06:47:13.777Z,95057.52
2018-04-12T06:49:47.720Z,95048.08
2018-04-12T06:52:16.661Z,95041.53
2018-04-12T06:54:45.685Z,95041.11
2018-04-12T06:57:17.457Z,95041.89
2018-04-12T06:59:46.463Z,95038.39
2018-04-12T07:02:14.114Z,95028.42
2018-04-12T07:04:43.964Z,95022.16
2018-04-12T07:07:15.056Z,95020.81
2018-04-12T07:09:43.663Z,95008.12
2018-04-12T07:12:11.854Z,95007.12
2018-04-12T07:14:40.678Z,95009.03
2018-04-12T07:17:09.242Z,95010.39
2018-04-12T07:19:37.499Z,95019.00
2018-04-12T07:22:05.069Z,95014.43
2018-04-12T07:24:34.739Z,95012.77
2018-04-12T07:27:04.136Z,95020.98
2018-04-12T07:29:31.760Z,95021.28
2018-04-12T07:31:59.304Z,95023.03
2018-04-12T07:34:27.270Z,95028.06
2018-04-12T07:37:00.514Z,95018.17
2018-04-12T07:39:28.186Z,95013.60
2018-04-12T07:41:56.598Z,95028.56
2018-04-12T07:44:24.460Z,95030.70
2018-04-12T07:46:53.893Z,95025.21
2018-04-12T07:49:21.554Z,95026.25
2018-04-12T07:51:49.097Z,95038.20
2018-04-12T07:54:16.711Z,95043.45
2018-04-12T07:56:45.353Z,95034.19
2018-04-12T07:59:15.647Z,95031.34
2018-04-12T08:01:44.076Z,95024.58
2018-04-12T08:04:11.779Z,95019.85
2018-04-12T08:06:40.613Z,95017.88
2018-04-12T08:09:08.549Z,95015.55
2018-04-12T08:11:41.005Z,95018.98
2018-04-12T08:14:08.927Z,95018.43
2018-04-12T08:16:36.780Z,95008.63
2018-04-12T08:19:06.286Z,95015.80
2018-04-12T08:21:34.197Z,95013.88
2018-04-12T08:24:01.868Z,95024.28
2018-04-12T08:26:29.416Z,95013.45
2018-04-12T08:28:56.969Z,95010.63
2018-04-12T08:31:24.706Z,95003.63
2018-04-12T08:33:52.417Z,95010.34
2018-04-12T08:36:28.557Z,95006.22
2018-04-12T08:38:56.147Z,95006.14
2018-04-12T08:41:23.966Z,95004.33
2018-04-12T08:43:54.130Z,95001.17
2018-04-12T08:46:23.759Z,95004.86
2018-04-12T08:48:51.291Z,95006.99
2018-04-12T08:51:19.049Z,95003.28
2018-04-12T08:53:48.644Z,95004.31
2018-04-12T08:56:16.455Z,95003.08
2018-04-12T08:58:44.418Z,95007.10
2018-04-12T09:01:11.991Z,95010.78
2018-04-12T09:03:41.049Z,95005.73
2018-04-12T09:06:11.162Z,95011.77
2018-04-12T09:08:42.928Z,95010.13
2018-04-12T09:11:10.823Z,95015.55
2018-04-12T09:13:38.468Z,95008.55
2018-04-12T09:16:06.365Z,95001.46
2018-04-12T09:18:36.139Z,95004.74
2018-04-12T09:21:05.689Z,95012.70
2018-04-12T09:23:33.610Z,95005.19
2018-04-12T09:26:02.878Z,95003.45
2018-04-12T09:28:32.181Z,95007.88
2018-04-12T09:31:01.310Z,94998.47
2018-04-12T09:33:31.547Z,95006.61
2018-04-12T09:36:03.348Z,95006.07
2018-04-12T09:38:33.366Z,95011.95
2018-04-12T09:41:01.153Z,95016.97
2018-04-12T09:43:28.682Z,95008.63
2018-04-12T09:45:57.536Z,95002.92
2018-04-12T09:48:25.054Z,95003.25
2018-04-12T09:50:52.548Z,94998.81
2018-04-12T09:53:21.205Z,95005.47
2018-04-12T09:55:48.765Z,94995.73
2018-04-12T09:58:17.419Z,95004.09
2018-04-12T10:00:57.520Z,94999.95
2018-04-12T10:03:28.576Z,95008.13
2018-04-12T10:06:06.679Z,94999.08
2018-04-12T10:11:51.213Z,94993.67
2018-04-12T10:14:20.658Z,94991.94
2018-04-12T10:16:49.338Z,95000.02
2018-04-12T10:19:18.545Z,94993.23
2018-04-12T10:21:51.064Z,95002.80
2018-04-12T10:24:28.251Z,95007.61
2018-04-12T10:27:01.843Z,95001.80
2018-04-12T10:29:30.307Z,95000.22
2018-04-12T10:31:58.620Z,94995.86
2018-04-12T10:34:29.577Z,95003.60
2018-04-12T10:37:02.334Z,95000.05
2018-04-12T10:39:33.939Z,95002.91
2018-04-12T10:42:08.063Z,95008.44
2018-04-12T10:44:38.350Z,95005.88
2018-04-12T10:47:09.980Z,94990.92
2018-04-12T10:49:37.945Z,94993.25
2018-04-12T10:52:05.677Z,94986.84
2018-04-12T10:54:33.975Z,94995.11
2018-04-12T10:57:03.818Z,94993.22
2018-04-12T10:59:32.019Z,95011.19
2018-04-12T11:02:04.320Z,95003.49
2018-04-12T11:04:37.370Z,95000.83
2018-04-12T11:07:11.242Z,95015.05
2018-04-12T11:09:38.786Z,95011.82
2018-04-12T11:12:09.398Z,95014.71
2018-04-12T11:14:39.401Z,95001.41
2018-04-12T11:17:09.369Z,95005.41
2018-04-12T11:19:37.794Z,95008.71
2018-04-12T11:22:05.371Z,95003.25
2018-04-12T11:24:35.449Z,94993.62
2018-04-12T11:27:05.580Z,94996.81
2018-04-12T11:29:34.098Z,94996.91
2018-04-12T11:32:03.347Z,94995.80
2018-04-12T11:34:31.820Z,94980.82
2018-04-12T11:37:01.251Z,94979.14
2018-04-12T11:39:29.349Z,94974.02
2018-04-12T11:41:59.024Z,94985.43
2018-04-12T11:44:26.752Z,94988.02
2018-04-12T11:46:56.109Z,94983.42
2018-04-12T11:49:26.197Z,94994.63
2018-04-12T11:51:54.063Z,94996.34
2018-04-12T11:54:22.120Z,95009.92
2018-04-12T11:56:51.154Z,95019.09
2018-04-12T11:59:18.725Z,95015.01
2018-04-12T12:01:47.815Z,95013.91
2018-04-12T12:04:15.870Z,95017.02
2018-04-12T12:06:44.399Z,95009.75
2018-04-12T12:09:12.782Z,95014.64
2018-04-12T12:11:42.226Z,95008.84
2018-04-12T12:14:10.218Z,95005.11
2018-04-12T12:16:38.068Z,95012.42
2018-04-12T12:19:06.685Z,95006.17
2018-04-12T12:21:35.080Z,95017.59
2018-04-12T12:24:03.097Z,95018.83
2018-04-12T12:26:30.609Z,95016.84
2018-04-12T12:28:58.185Z,95011.25
2018-04-12T12:31:25.848Z,94998.72
2018-04-12T12:33:54.832Z,95002.84
2018-04-12T12:36:23.488Z,94997.89
2018-04-12T12:38:51.043Z,95000.13
2018-04-12T12:41:18.926Z,95007.22
2018-04-12T12:43:47.792Z,94995.79
2018-04-12T12:46:15.371Z,94995.86
2018-04-12T12:48:44.782Z,94992.27
2018-04-12T12:51:14.005Z,94998.45
2018-04-12T12:53:42.652Z,94997.91
2018-04-12T12:56:10.140Z,95003.02
2018-04-12T12:58:38.509Z,94991.29
2018-04-12T13:01:07.807Z,94997.27
2018-04-12T13:03:36.034Z,95003.06
2018-04-12T13:06:04.735Z,94995.21
2018-04-12T13:08:37.828Z,95007.17
2018-04-12T13:11:05.563Z,94996.46
2018-04-12T13:13:33.223Z,94991.48
2018-04-12T13:16:03.830Z,94982.45
2018-04-12T13:18:31.397Z,94983.59
2018-04-12T13:20:58.988Z,94987.28
2018-04-12T13:23:26.578Z,94982.42
2018-04-12T13:25:54.140Z,94991.38
2018-04-12T13:28:21.684Z,94988.38
2018-04-12T13:30:49.220Z,94985.05
2018-04-12T13:33:16.808Z,94979.87
2018-04-12T13:35:44.325Z,94975.23
2018-04-12T13:38:11.903Z,94974.45
2018-04-12T13:40:39.444Z,94966.30
2018-04-12T13:43:07.001Z,94971.92
2018-04-12T13:45:34.549Z,94976.09
2018-04-12T13:48:02.094Z,94980.49
2018-04-12T13:50:29.655Z,94979.27
2018-04-12T13:52:57.220Z,94984.62
2018-04-12T13:55:24.700Z,94985.62
2018-04-12T13:57:52.206Z,94982.28
2018-04-12T14:00:19.721Z,94980.14
2018-04-12T14:02:47.250Z,94985.89
2018-04-12T14:05:14.775Z,94988.33
2018-04-12T14:07:42.475Z,94990.69
2018-04-12T14:10:10.060Z,94981.83
2018-04-12T14:12:37.686Z,94986.20
2018-04-12T14:15:05.221Z,94988.81
2018-04-12T14:17:32.766Z,94992.17
2018-04-12T14:20:00.356Z,94997.01
2018-04-12T14:22:27.892Z,95001.44
2018-04-12T14:24:55.377Z,94999.21
2018-04-12T14:27:22.914Z,94998.31
2018-04-12T14:29:50.508Z,95011.23
2018-04-12T14:32:18.044Z,95022.09
2018-04-12T14:34:45.540Z,95013.80
2018-04-12T14:37:13.052Z,95012.64
2018-04-12T14:39:40.581Z,94998.15
2018-04-12T14:42:08.111Z,94997.53
2018-04-12T14:44:35.642Z,95003.27
2018-04-12T14:47:03.187Z,95010.94
2018-04-12T14:49:30.739Z,95001.50
2018-04-12T14:51:58.301Z,95009.69
2018-04-12T14:54:25.857Z,95010.99
2018-04-12T14:56:53.411Z,95001.70
2018-04-12T14:59:20.969Z,95016.34
2018-04-12T15:01:48.524Z,95005.45
2018-04-12T15:04:16.083Z,95014.64
2018-04-12T15:06:43.617Z,95004.23
2018-04-12T15:09:11.214Z,95011.39
2018-04-12T15:11:38.756Z,95010.59
2018-04-12T15:14:06.276Z,95021.16
2018-04-12T15:16:33.826Z,95019.84
2018-04-12T15:19:01.349Z,95016.41
2018-04-12T15:21:28.916Z,95027.33
2018-04-12T15:23:56.450Z,95033.44
2018-04-12T15:26:24.034Z,95038.97
2018-04-12T15:28:51.612Z,95032.75
2018-04-12T15:31:19.149Z,95029.90
2018-04-12T15:33:46.680Z,95024.51
2018-04-12T15:36:14.230Z,95036.17
2018-04-12T15:38:41.809Z,95033.36
2018-04-12T15:41:09.348Z,95032.84
2018-04-12T15:43:36.883Z,95043.19
2018-04-12T15:46:04.454Z,95043.85
2018-04-12T15:48:31.993Z,95044.25
2018-04-12T15:50:59.536Z,95052.48
2018-04-12T15:53:27.132Z,95051.68
2018-04-12T15:55:54.665Z,95048.48
2018-04-12T15:58:22.216Z,95058.72
2018-04-12T16:00:49.784Z,95064.63
2018-04-12T16:03:17.326Z,95055.42
2018-04-12T16:05:44.972Z,95046.29
2018-04-12T16:08:12.542Z,95067.83
2018-04-12T16:10:40.071Z,95060.49
2018-04-12T16:13:07.620Z,95062.12
2018-04-12T16:15:35.155Z,95050.61
2018-04-12T16:18:02.673Z,95044.73
2018-04-12T16:20:30.172Z,95041.62
2018-04-12T16:22:57.702Z,95041.98
2018-04-12T16:25:25.636Z,95045.11
2018-04-12T16:27:53.164Z,95057.73
2018-04-12T16:30:20.734Z,95062.58
2018-04-12T16:32:48.292Z,95057.55
2018-04-12T16:35:15.854Z,95058.84
2018-04-12T16:37:43.382Z,95063.30
2018-04-12T16:40:10.962Z,95063.83
2018-04-12T16:42:38.525Z,95064.17
2018-04-12T16:45:06.181Z,95057.40
2018-04-12T16:47:33.761Z,95063.38
2018-04-12T16:50:01.319Z,95069.41
2018-04-12T16:52:28.832Z,95072.81
2018-04-12T16:54:56.358Z,95067.28
2018-04-12T16:57:23.897Z,95068.23
2018-04-12T16:59:51.502Z,95059.38
2018-04-12T17:02:19.034Z,95052.00
2018-04-12T17:04:46.574Z,95063.73
2018-04-12T17:07:14.119Z,95068.44
2018-04-12T17:09:41.675Z,95061.86
2018-04-12T17:12:09.243Z,95061.64
2018-04-12T17:14:36.807Z,95057.08
2018-04-12T17:17:04.346Z,95049.88
2018-04-12T17:19:31.914Z,95056.29
2018-04-12T17:21:59.483Z,95049.64
2018-04-12T17:24:27.047Z,95045.30
2018-04-12T17:26:54.582Z,95049.38
2018-04-12T17:29:22.121Z,95062.87
2018-04-12T17:31:49.743Z,95067.41
2018-04-12T17:34:17.305Z,95078.98
2018-04-12T17:36:44.838Z,95081.40
2018-04-12T17:39:12.382Z,95085.52
2018-04-12T17:41:39.947Z,95092.70
2018-04-12T17:44:07.486Z,95079.23
2018-04-12T17:46:35.040Z,95077.13
2018-04-12T17:49:02.600Z,95070.39
2018-04-12T17:51:30.156Z,95073.39
2018-04-12T17:53:57.699Z,95073.39
2018-04-12T17:56:25.261Z,95070.63
2018-04-12T17:58:52.993Z,95073.66
2018-04-12T18:01:20.550Z,95074.07
2018-04-12T18:03:48.120Z,95082.52
2018-04-12T18:06:15.999Z,95078.65
2018-04-12T18:08:43.533Z,95080.75
2018-04-12T18:11:11.180Z,95086.96
2018-04-12T18:13:38.739Z,95087.48
2018-04-12T18:16:06.289Z,95103.66
2018-04-12T18:18:33.856Z,95114.20
2018-04-12T18:21:01.421Z,95113.18
2018-04-12T18:23:28.973Z,95110.34
2018-04-12T18:25:56.564Z,95107.98
2018-04-12T18:28:24.115Z,95118.09
2018-04-12T18:30:51.659Z,95112.68
2018-04-12T18:33:19.206Z,95104.70
2018-04-12T18:35:46.764Z,95103.38
2018-04-12T18:38:14.316Z,95099.58
2018-04-12T18:40:41.866Z,95098.45
2018-04-12T18:43:09.406Z,95088.47
2018-04-12T18:45:36.953Z,95093.30
2018-04-12T18:48:04.533Z,95090.88
2018-04-12T18:50:32.095Z,95097.83
2018-04-12T18:52:59.680Z,95090.66
2018-04-12T18:55:27.255Z,95101.21
2018-04-12T18:57:54.808Z,95106.42
2018-04-12T19:00:22.422Z,95111.28
2018-04-12T19:02:49.973Z,95120.42
2018-04-12T19:05:17.516Z,95115.40
2018-04-12T19:07:45.091Z,95125.38
2018-04-12T19:10:12.656Z,95114.84
2018-04-12T19:12:40.206Z,95125.66
2018-04-12T19:15:07.838Z,95112.09
2018-04-12T19:17:35.468Z,95115.23
2018-04-12T19:20:03.089Z,95112.38
2018-04-12T19:22:30.680Z,95112.70
2018-04-12T19:24:58.257Z,95118.70
2018-04-12T19:27:25.856Z,95119.19
2018-04-12T19:29:53.413Z,95120.45
2018-04-12T19:32:21.022Z,95119.23
2018-04-12T19:34:48.627Z,95119.88
2018-04-12T19:37:16.202Z,95119.06
2018-04-12T19:39:43.778Z,95112.94
2018-04-12T19:42:11.383Z,95113.15
2018-04-12T19:44:38.955Z,95110.90
2018-04-12T19:47:06.545Z,95110.56
2018-04-12T19:49:34.142Z,95111.50
2018-04-12T19:52:02.131Z,95106.05
2018-04-12T19:54:29.732Z,95099.55
2018-04-12T19:56:57.288Z,95094.59
2018-04-12T19:59:25.203Z,95097.37
2018-04-12T20:01:52.767Z,95102.92
2018-04-12T20:04:20.709Z,95097.06
2018-04-12T20:06:48.267Z,95096.16
2018-04-12T20:09:15.849Z,95097.92
2018-04-12T20:11:43.484Z,95091.36
2018-04-12T20:14:11.045Z,95089.87
2018-04-12T20:16:38.585Z,95086.30
2018-04-12T20:19:06.189Z,95092.73
2018-04-12T20:21:33.749Z,95095.78
2018-04-12T20:24:01.368Z,95098.14
2018-04-12T20:26:29.284Z,95101.39
2018-04-12T20:28:56.860Z,95105.11
2018-04-12T20:31:24.429Z,95101.33
2018-04-12T20:33:51.977Z,95096.36
2018-04-12T20:36:19.610Z,95094.80
2018-04-12T20:38:47.145Z,95099.90
2018-04-12T20:41:14.705Z,95097.79
2018-04-12T20:43:42.266Z,95092.84
2018-04-12T20:46:09.868Z,95091.15
2018-04-12T20:48:37.412Z,95091.13
2018-04-12T20:51:04.953Z,95091.75
2018-04-12T20:53:32.520Z,95080.00
2018-04-12T20:56:00.102Z,95074.60
2018-04-12T20:58:27.654Z,95069.73
2018-04-12T21:00:55.200Z,95068.06
2018-04-12T21:03:22.769Z,95069.47
2018-04-12T21:05:50.306Z,95076.06
2018-04-12T21:08:17.939Z,95078.28
2018-04-12T21:10:45.454Z,95076.47
2018-04-12T21:13:12.991Z,95078.06
2018-04-12T21:15:40.535Z,95066.90
2018-04-12T21:18:08.093Z,95067.67
2018-04-12T21:20:35.633Z,95054.08
2018-04-12T21:23:03.173Z,95054.78
2018-04-12T21:25:30.755Z,95056.23
2018-04-12T21:27:58.312Z,95048.42
2018-04-12T21:30:25.868Z,95037.77
2018-04-12T21:32:53.414Z,95033.53
2018-04-12T21:35:20.968Z,95042.86
2018-04-12T21:37:48.533Z,95041.50
2018-04-12T21:40:16.106Z,95043.20
2018-04-12T21:42:43.663Z,95034.36
2018-04-12T21:45:11.249Z,95038.39
2018-04-12T21:47:38.749Z,95034.81
2018-04-12T21:50:06.280Z,95032.14
2018-04-12T21:52:33.846Z,95031.53
2018-04-12T21:55:01.396Z,95029.27
2018-04-12T21:57:28.956Z,95032.48
2018-04-12T21:59:56.498Z,95032.95
2018-04-12T22:02:24.037Z,95028.45
2018-04-12T22:04:52.009Z,95026.05
2018-04-12T22:07:19.547Z,95027.91
2018-04-12T22:09:47.120Z,95019.30
2018-04-12T22:12:14.705Z,95016.69
2018-04-12T22:14:42.249Z,95010.73
2018-04-12T22:17:09.780Z,95004.34
2018-04-12T22:19:37.361Z,95006.58
2018-04-12T22:22:04.898Z,94998.84
2018-04-12T22:24:32.448Z,95002.45
2018-04-12T22:27:00.020Z,94997.33
2018-04-12T22:29:27.556Z,94999.73
2018-04-12T22:31:55.097Z,94995.03
2018-04-12T22:34:22.627Z,94986.33
2018-04-12T22:36:50.191Z,94991.30
2018-04-12T22:39:17.744Z,94989.53
2018-04-12T22:41:45.331Z,94990.58
2018-04-12T22:44:12.877Z,94995.64
2018-04-12T22:46:40.420Z,94995.16
2018-04-12T22:49:07.970Z,94998.07
2018-04-12T22:51:35.525Z,94992.06
2018-04-12T22:54:03.136Z,94997.09
2018-04-12T22:56:30.640Z,95000.89
2018-04-12T22:58:58.151Z,94995.45
2018-04-12T23:01:25.750Z,94997.33
2018-04-12T23:03:53.328Z,95002.39
2018-04-12T23:06:20.909Z,94992.70
2018-04-12T23:08:48.469Z,94986.52
2018-04-12T23:11:16.064Z,94974.19
2018-04-12T23:13:43.621Z,94979.27
2018-04-12T23:16:11.170Z,94977.99
2018-04-12T23:18:38.730Z,94982.22
2018-04-12T23:21:06.258Z,94986.81
2018-04-12T23:23:33.828Z,94985.41
2018-04-12T23:26:01.391Z,94999.48
2018-04-12T23:28:28.969Z,95003.33
2018-04-12T23:30:56.533Z,95007.52
2018-04-12T23:33:24.129Z,95002.98
2018-04-12T23:35:51.694Z,94999.91
2018-04-12T23:38:19.233Z,95009.17
2018-04-12T23:40:46.796Z,95014.38
2018-04-12T23:43:14.338Z,95000.39
2018-04-12T23:45:41.923Z,95005.82
2018-04-12T23:48:09.457Z,95001.90
2018-04-12T23:50:36.999Z,94993.92
2018-04-12T23:53:04.580Z,94979.22
2018-04-12T23:55:32.123Z,94979.43
2018-04-12T23:57:59.672Z,94978.70
